Have a Safe July 4th! 

Flight Track Log - Related Links

Times and Time Zones

All times are in EDT time to prevent confusion due to time zone crossing. See the KAP95 flight status page for this flight to view local times or setup timezone preferences in your user account.

Time Position Orientation Groundspeed Altitude Reporting Facility
EDT Latitude Longitude Course Direction KTS MPH feet Rate Location/Type
Sun 07:40:46 PM 38.7833 -90.3667 360° North 100 115 2,500  Level Gateway (St. Louis) TRACON
Sun 07:41:16 PM 38.7978 -90.3586 23° Northeast 108 124 2,700 783 Climbing Kansas City Center
Sun 07:42:18 PM 38.8122 -90.3242 62° Northeast 108 124 3,700 1,122 Climbing Kansas City Center
Sun 07:43:19 PM 38.8283 -90.2878 60° Northeast 103 119 5,000 976 Climbing Kansas City Center
Sun 07:44:21 PM 38.8431 -90.2608 55° Northeast 97 112 5,700 484 Climbing Kansas City Center
Sun 07:45:00 PM 38.6643 -90.0876 111° Southeast  Level Estimated
Sun 07:45:23 PM 38.8581 -90.2311 57° Northeast 97 112 6,000  Level Kansas City Center
Sun 07:46:24 PM 38.8728 -90.1917 64° Northeast 109 125 6,000  Level Kansas City Center
Sun 07:47:26 PM 38.8753 -90.1406 86° East 131 151 6,000  Level Kansas City Center
Sun 07:48:28 PM 38.8789 -90.0903 85° East 139 160 6,000  Level Kansas City Center
Sun 07:49:30 PM 38.8653 -90.0419 110° East 148 170 6,000 145 Level Kansas City Center
Sun 07:50:32 PM 38.8478 -89.9933 115° Southeast 150 173 6,300 390 Climbing Kansas City Center
Sun 07:51:33 PM 38.8294 -89.9394 114° Southeast 141 162 6,800 341 Climbing Kansas City Center
Sun 07:52:35 PM 38.8128 -89.8953 116° Southeast 137 158 7,000 97 Climbing Kansas City Center
Sun 07:53:37 PM 38.7950 -89.8508 117° Southeast 139 160 7,000  Level Kansas City Center
Sun 07:54:39 PM 38.7781 -89.8028 114° Southeast 146 168 7,000 49 Level Kansas City Center
Sun 07:55:40 PM 38.7600 -89.7561 116° Southeast 147 169 7,100 49 Climbing Kansas City Center
Sun 07:56:42 PM 38.7425 -89.7086 115° Southeast 147 169 7,100  Level Kansas City Center
Sun 07:57:44 PM 38.7236 -89.6533 114° Southeast 148 170 7,100 -49 Level Kansas City Center
Sun 07:58:45 PM 38.7106 -89.5989 107° East 148 170 7,000 -49 Descending Kansas City Center
Sun 07:59:47 PM 38.6992 -89.5497 107° East 145 167 7,000  Level Kansas City Center
Sun 08:00:48 PM 38.6892 -89.4997 104° East 144 166 7,000  Level Kansas City Center
Sun 08:01:49 PM 38.6775 -89.4467 106° East 143 165 7,000  Level Kansas City Center
Sun 08:02:51 PM 38.6667 -89.3967 105° East 145 167 7,000  Level Kansas City Center
Sun 08:03:53 PM 38.6561 -89.3475 105° East 144 166 7,000 49 Level Kansas City Center
Sun 08:04:54 PM 38.6436 -89.2933 106° East 146 168 7,100 49 Climbing Kansas City Center
Sun 08:05:56 PM 38.6211 -89.2483 123° Southeast 148 170 7,100  Level Kansas City Center
Sun 08:06:58 PM 38.5956 -89.2036 126° Southeast 154 177 7,100  Level Kansas City Center
Sun 08:07:59 PM 38.5672 -89.1553 127° Southeast 158 182 7,100  Level Kansas City Center
Sun 08:09:01 PM 38.5403 -89.1100 127° Southeast 158 182 7,100  Level Kansas City Center
Sun 08:10:03 PM 38.5119 -89.0606 126° Southeast 160 184 7,100  Level Kansas City Center
Sun 08:11:04 PM 38.4872 -89.0150 125° Southeast 157 181 7,100  Level Kansas City Center
Sun 08:12:06 PM 38.4614 -88.9697 126° Southeast 158 182 7,100  Level Kansas City Center
Sun 08:13:08 PM 38.4369 -88.9194 122° Southeast 154 177 7,100  Level Kansas City Center
Sun 08:14:10 PM 38.4169 -88.8700 117° Southeast 158 182 7,100  Level Kansas City Center
Sun 08:15:11 PM 38.3956 -88.8228 120° Southeast 154 177 7,100  Level Kansas City Center
Sun 08:16:13 PM 38.3761 -88.7683 114° Southeast 158 182 7,100 -48 Level Kansas City Center
Sun 08:17:15 PM 38.3611 -88.7181 111° Southeast 153 176 7,000  Descending Kansas City Center
Sun 08:18:17 PM 38.3444 -88.6719 115° Southeast 153 176 7,100 49 Climbing Kansas City Center
Sun 08:19:18 PM 38.3239 -88.6214 117° Southeast 158 182 7,100  Level Kansas City Center
Sun 08:20:20 PM 38.3053 -88.5722 116° Southeast 156 180 7,100  Level Kansas City Center
Sun 08:21:22 PM 38.2814 -88.5122 117° Southeast 157 181 7,100  Level Kansas City Center
Sun 08:22:23 PM 38.2597 -88.4628 119° Southeast 159 183 7,100  Level Kansas City Center
Sun 08:23:25 PM 38.2431 -88.4131 113° Southeast 154 177 7,100  Level Kansas City Center
Sun 08:24:27 PM 38.2219 -88.3631 118° Southeast 158 182 7,100 -59 Level Kansas City Center
Sun 08:25:07 PM 38.2114 -88.3331 114° Southeast 157 181 7,000 -59 Descending Indianapolis Center
Sun 08:26:09 PM 38.1925 -88.2825 115° Southeast 157 181 7,000  Level Indianapolis Center
Sun 08:27:10 PM 38.1714 -88.2322 118° Southeast 158 182 7,000  Level Indianapolis Center
Sun 08:28:12 PM 38.1456 -88.1711 118° Southeast 161 185 7,000  Level Indianapolis Center
Sun 08:29:13 PM 38.1261 -88.1211 116° Southeast 160 184 7,000  Level Indianapolis Center
Sun 08:30:15 PM 38.1067 -88.0717 117° Southeast 158 182 7,000  Level Indianapolis Center
Sun 08:31:16 PM 38.0858 -88.0233 119° Southeast 156 180 7,000  Level Indianapolis Center
Sun 08:32:18 PM 38.0664 -87.9739 117° Southeast 156 180 7,000  Level Indianapolis Center
Sun 08:33:19 PM 38.0483 -87.9228 114° Southeast 157 181 7,000  Level Indianapolis Center
Sun 08:34:21 PM 38.0275 -87.8744 119° Southeast 156 180 7,000 -195 Level Indianapolis Center
Sun 08:35:22 PM 38.0061 -87.8225 118° Southeast 162 186 6,600 -390 Descending Indianapolis Center
Sun 08:36:24 PM 37.9836 -87.7672 117° Southeast 169 194 6,200 -390 Descending Indianapolis Center
Sun 08:37:25 PM 37.9564 -87.7003 117° Southeast 177 204 5,800 -390 Descending Indianapolis Center
Sun 08:38:27 PM 37.9339 -87.6456 118° Southeast 175 201 5,400 -390 Descending Indianapolis Center
Sun 08:39:28 PM 37.9114 -87.5900 117° Southeast 177 204 5,000 -390 Descending Indianapolis Center
Sun 08:40:30 PM 37.8903 -87.5350 116° Southeast 174 200 4,600 -194 Descending Indianapolis Center
Sun 08:41:32 PM 37.8686 -87.4814 117° Southeast 174 200 4,600  Level Indianapolis Center

Login

Don't have an account? Register now (free) for customized features, flight alerts, and more!